sensor_id;sensor_type;location;lat;lon;timestamp;temperature;humidity
770;DHT22;368;48.698;9.116;2022-11-23T00:00:31;2.20;99.90
770;DHT22;368;48.698;9.116;2022-11-23T00:02:58;2.00;99.90
770;DHT22;368;48.698;9.116;2022-11-23T00:05:26;1.80;99.90
770;DHT22;368;48.698;9.116;2022-11-23T00:07:53;1.70;99.90
770;DHT22;368;48.698;9.116;2022-11-23T00:10:20;1.60;99.90
770;DHT22;368;48.698;9.116;2022-11-23T00:12:47;1.40;99.90
770;DHT22;368;48.698;9.116;2022-11-23T00:15:15;1.40;99.90
770;DHT22;368;48.698;9.116;2022-11-23T00:17:42;1.60;99.90
770;DHT22;368;48.698;9.116;2022-11-23T00:20:09;1.90;99.90
770;DHT22;368;48.698;9.116;2022-11-23T00:22:36;2.20;99.90
770;DHT22;368;48.698;9.116;2022-11-23T00:25:03;2.20;99.90
770;DHT22;368;48.698;9.116;2022-11-23T00:27:30;2.30;99.90
770;DHT22;368;48.698;9.116;2022-11-23T00:29:57;2.60;99.90
770;DHT22;368;48.698;9.116;2022-11-23T00:32:28;2.50;99.90
770;DHT22;368;48.698;9.116;2022-11-23T00:34:54;2.70;99.90
770;DHT22;368;48.698;9.116;2022-11-23T00:37:21;2.50;99.90
770;DHT22;368;48.698;9.116;2022-11-23T00:39:48;2.20;99.90
770;DHT22;368;48.698;9.116;2022-11-23T00:42:15;2.30;99.90
770;DHT22;368;48.698;9.116;2022-11-23T00:44:41;2.50;99.90
770;DHT22;368;48.698;9.116;2022-11-23T00:47:08;2.40;99.90
770;DHT22;368;48.698;9.116;2022-11-23T00:49:36;2.50;99.90
770;DHT22;368;48.698;9.116;2022-11-23T00:52:03;2.80;99.90
770;DHT22;368;48.698;9.116;2022-11-23T00:54:30;2.80;99.90
770;DHT22;368;48.698;9.116;2022-11-23T00:56:57;2.60;99.90
770;DHT22;368;48.698;9.116;2022-11-23T00:59:24;2.80;99.90
770;DHT22;368;48.698;9.116;2022-11-23T01:01:50;2.60;99.90
770;DHT22;368;48.698;9.116;2022-11-23T01:04:17;2.60;99.90
770;DHT22;368;48.698;9.116;2022-11-23T01:06:45;2.60;99.90
770;DHT22;368;48.698;9.116;2022-11-23T01:09:14;2.50;99.90
770;DHT22;368;48.698;9.116;2022-11-23T01:11:42;2.40;99.90
770;DHT22;368;48.698;9.116;2022-11-23T01:14:09;2.40;99.90
770;DHT22;368;48.698;9.116;2022-11-23T01:16:38;2.20;99.90
770;DHT22;368;48.698;9.116;2022-11-23T01:19:07;2.00;99.90
770;DHT22;368;48.698;9.116;2022-11-23T01:21:34;2.10;99.90
770;DHT22;368;48.698;9.116;2022-11-23T01:24:05;2.30;99.90
770;DHT22;368;48.698;9.116;2022-11-23T01:26:32;2.20;99.90
770;DHT22;368;48.698;9.116;2022-11-23T01:28:59;2.50;99.90
770;DHT22;368;48.698;9.116;2022-11-23T01:31:26;2.30;99.90
770;DHT22;368;48.698;9.116;2022-11-23T01:33:54;2.40;99.90
770;DHT22;368;48.698;9.116;2022-11-23T01:36:23;2.30;99.90
770;DHT22;368;48.698;9.116;2022-11-23T01:38:51;2.40;99.90
770;DHT22;368;48.698;9.116;2022-11-23T01:41:21;2.20;99.90
770;DHT22;368;48.698;9.116;2022-11-23T01:43:49;2.00;99.90
770;DHT22;368;48.698;9.116;2022-11-23T01:46:17;2.10;99.90
770;DHT22;368;48.698;9.116;2022-11-23T01:48:46;2.00;99.90
770;DHT22;368;48.698;9.116;2022-11-23T01:51:16;2.10;99.90
770;DHT22;368;48.698;9.116;2022-11-23T01:53:45;1.90;99.90
770;DHT22;368;48.698;9.116;2022-11-23T01:56:15;1.70;99.90
770;DHT22;368;48.698;9.116;2022-11-23T01:58:46;1.90;99.90
770;DHT22;368;48.698;9.116;2022-11-23T02:01:15;1.90;99.90
770;DHT22;368;48.698;9.116;2022-11-23T02:03:42;1.90;99.90
770;DHT22;368;48.698;9.116;2022-11-23T02:06:14;1.60;99.90
770;DHT22;368;48.698;9.116;2022-11-23T02:08:42;1.60;99.90
770;DHT22;368;48.698;9.116;2022-11-23T02:11:10;1.50;99.90
770;DHT22;368;48.698;9.116;2022-11-23T02:13:39;1.70;99.90
770;DHT22;368;48.698;9.116;2022-11-23T02:16:08;1.70;99.90
770;DHT22;368;48.698;9.116;2022-11-23T02:18:36;1.60;99.90
770;DHT22;368;48.698;9.116;2022-11-23T02:21:06;1.60;99.90
770;DHT22;368;48.698;9.116;2022-11-23T02:23:39;1.50;99.90
770;DHT22;368;48.698;9.116;2022-11-23T02:26:12;1.60;99.90
770;DHT22;368;48.698;9.116;2022-11-23T02:28:42;1.30;99.90
770;DHT22;368;48.698;9.116;2022-11-23T02:31:10;1.20;99.90
770;DHT22;368;48.698;9.116;2022-11-23T02:33:38;1.40;99.90
770;DHT22;368;48.698;9.116;2022-11-23T02:36:20;1.30;99.90
770;DHT22;368;48.698;9.116;2022-11-23T02:38:51;1.20;99.90
770;DHT22;368;48.698;9.116;2022-11-23T02:41:20;1.50;99.90
770;DHT22;368;48.698;9.116;2022-11-23T02:43:48;1.40;99.90
770;DHT22;368;48.698;9.116;2022-11-23T02:46:17;1.50;99.90
770;DHT22;368;48.698;9.116;2022-11-23T02:48:44;1.30;99.90
770;DHT22;368;48.698;9.116;2022-11-23T02:51:10;1.30;99.90
770;DHT22;368;48.698;9.116;2022-11-23T02:53:37;1.50;99.90
770;DHT22;368;48.698;9.116;2022-11-23T02:56:04;1.60;99.90
770;DHT22;368;48.698;9.116;2022-11-23T02:58:32;1.50;99.90
770;DHT22;368;48.698;9.116;2022-11-23T03:00:59;1.80;99.90
770;DHT22;368;48.698;9.116;2022-11-23T03:03:26;1.50;99.90
770;DHT22;368;48.698;9.116;2022-11-23T03:05:52;1.50;99.90
770;DHT22;368;48.698;9.116;2022-11-23T03:08:19;1.40;99.90
770;DHT22;368;48.698;9.116;2022-11-23T03:10:46;1.60;99.90
770;DHT22;368;48.698;9.116;2022-11-23T03:13:13;1.70;99.90
770;DHT22;368;48.698;9.116;2022-11-23T03:15:41;1.70;99.90
770;DHT22;368;48.698;9.116;2022-11-23T03:18:08;1.80;99.90
770;DHT22;368;48.698;9.116;2022-11-23T03:20:35;1.50;99.90
770;DHT22;368;48.698;9.116;2022-11-23T03:23:02;1.60;99.90
770;DHT22;368;48.698;9.116;2022-11-23T03:25:29;1.40;99.90
770;DHT22;368;48.698;9.116;2022-11-23T03:27:56;1.60;99.90
770;DHT22;368;48.698;9.116;2022-11-23T03:30:22;1.50;99.90
770;DHT22;368;48.698;9.116;2022-11-23T03:32:51;1.20;99.90
770;DHT22;368;48.698;9.116;2022-11-23T03:35:17;1.30;99.90
770;DHT22;368;48.698;9.116;2022-11-23T03:37:44;1.40;99.90
770;DHT22;368;48.698;9.116;2022-11-23T03:40:11;1.20;99.90
770;DHT22;368;48.698;9.116;2022-11-23T03:42:38;1.40;99.90
770;DHT22;368;48.698;9.116;2022-11-23T03:45:06;1.30;99.90
770;DHT22;368;48.698;9.116;2022-11-23T03:47:34;1.20;99.90
770;DHT22;368;48.698;9.116;2022-11-23T03:50:02;1.40;99.90
770;DHT22;368;48.698;9.116;2022-11-23T03:52:29;1.30;99.90
770;DHT22;368;48.698;9.116;2022-11-23T03:54:56;1.20;99.90
770;DHT22;368;48.698;9.116;2022-11-23T03:57:22;1.60;99.90
770;DHT22;368;48.698;9.116;2022-11-23T03:59:49;1.40;99.90
770;DHT22;368;48.698;9.116;2022-11-23T04:02:16;1.50;99.90
770;DHT22;368;48.698;9.116;2022-11-23T04:04:43;1.40;99.90
770;DHT22;368;48.698;9.116;2022-11-23T04:07:11;1.50;99.90
770;DHT22;368;48.698;9.116;2022-11-23T04:09:37;1.40;99.90
770;DHT22;368;48.698;9.116;2022-11-23T04:12:05;1.40;99.90
770;DHT22;368;48.698;9.116;2022-11-23T04:14:32;1.70;99.90
770;DHT22;368;48.698;9.116;2022-11-23T04:16:59;1.80;99.90
770;DHT22;368;48.698;9.116;2022-11-23T04:19:26;1.60;99.90
770;DHT22;368;48.698;9.116;2022-11-23T04:21:53;1.60;99.90
770;DHT22;368;48.698;9.116;2022-11-23T04:24:21;1.60;99.90
770;DHT22;368;48.698;9.116;2022-11-23T04:26:48;1.40;99.90
770;DHT22;368;48.698;9.116;2022-11-23T04:29:15;1.60;99.90
770;DHT22;368;48.698;9.116;2022-11-23T04:31:41;1.40;99.90
770;DHT22;368;48.698;9.116;2022-11-23T04:34:08;1.60;99.90
770;DHT22;368;48.698;9.116;2022-11-23T04:36:35;1.90;99.90
770;DHT22;368;48.698;9.116;2022-11-23T04:39:02;1.70;99.90
770;DHT22;368;48.698;9.116;2022-11-23T04:41:31;1.60;99.90
770;DHT22;368;48.698;9.116;2022-11-23T04:43:57;1.80;99.90
770;DHT22;368;48.698;9.116;2022-11-23T04:46:24;2.00;99.90
770;DHT22;368;48.698;9.116;2022-11-23T04:48:51;1.80;99.90
770;DHT22;368;48.698;9.116;2022-11-23T04:51:18;2.00;99.90
770;DHT22;368;48.698;9.116;2022-11-23T04:53:44;1.90;99.90
770;DHT22;368;48.698;9.116;2022-11-23T04:56:11;1.90;99.90
770;DHT22;368;48.698;9.116;2022-11-23T04:58:40;2.20;99.90
770;DHT22;368;48.698;9.116;2022-11-23T05:01:06;2.30;99.90
770;DHT22;368;48.698;9.116;2022-11-23T05:03:34;2.50;99.90
770;DHT22;368;48.698;9.116;2022-11-23T05:06:01;2.60;99.90
770;DHT22;368;48.698;9.116;2022-11-23T05:08:29;2.50;99.90
770;DHT22;368;48.698;9.116;2022-11-23T05:10:56;2.30;99.90
770;DHT22;368;48.698;9.116;2022-11-23T05:13:23;2.00;99.90
770;DHT22;368;48.698;9.116;2022-11-23T05:15:51;2.00;99.90
770;DHT22;368;48.698;9.116;2022-11-23T05:18:18;1.90;99.90
770;DHT22;368;48.698;9.116;2022-11-23T05:20:45;1.80;99.90
770;DHT22;368;48.698;9.116;2022-11-23T05:23:12;1.80;99.90
770;DHT22;368;48.698;9.116;2022-11-23T05:25:39;1.80;99.90
770;DHT22;368;48.698;9.116;2022-11-23T05:28:06;2.10;99.90
770;DHT22;368;48.698;9.116;2022-11-23T05:30:33;2.10;99.90
770;DHT22;368;48.698;9.116;2022-11-23T05:33:01;2.20;99.90
770;DHT22;368;48.698;9.116;2022-11-23T05:35:28;2.00;99.90
770;DHT22;368;48.698;9.116;2022-11-23T05:37:55;2.10;99.90
770;DHT22;368;48.698;9.116;2022-11-23T05:40:22;2.10;99.90
770;DHT22;368;48.698;9.116;2022-11-23T05:42:53;2.10;99.90
770;DHT22;368;48.698;9.116;2022-11-23T05:45:20;2.50;99.90
770;DHT22;368;48.698;9.116;2022-11-23T05:47:49;2.40;99.90
770;DHT22;368;48.698;9.116;2022-11-23T05:50:17;2.60;99.90
770;DHT22;368;48.698;9.116;2022-11-23T05:52:44;2.60;99.90
770;DHT22;368;48.698;9.116;2022-11-23T05:55:12;2.40;99.90
770;DHT22;368;48.698;9.116;2022-11-23T05:57:38;2.50;99.90
770;DHT22;368;48.698;9.116;2022-11-23T06:00:07;2.40;99.90
770;DHT22;368;48.698;9.116;2022-11-23T06:02:36;2.40;99.90
770;DHT22;368;48.698;9.116;2022-11-23T06:05:03;2.20;99.90
770;DHT22;368;48.698;9.116;2022-11-23T06:07:32;2.40;99.90
770;DHT22;368;48.698;9.116;2022-11-23T06:09:59;2.30;99.90
770;DHT22;368;48.698;9.116;2022-11-23T06:12:26;2.20;99.90
770;DHT22;368;48.698;9.116;2022-11-23T06:14:53;2.50;99.90
770;DHT22;368;48.698;9.116;2022-11-23T06:17:20;2.40;99.90
770;DHT22;368;48.698;9.116;2022-11-23T06:19:47;2.40;99.90
770;DHT22;368;48.698;9.116;2022-11-23T06:22:14;2.50;99.90
770;DHT22;368;48.698;9.116;2022-11-23T06:24:43;2.30;99.90
770;DHT22;368;48.698;9.116;2022-11-23T06:27:09;2.60;99.90
770;DHT22;368;48.698;9.116;2022-11-23T06:29:37;2.50;99.90
770;DHT22;368;48.698;9.116;2022-11-23T06:32:04;2.40;99.90
770;DHT22;368;48.698;9.116;2022-11-23T06:34:33;2.40;99.90
770;DHT22;368;48.698;9.116;2022-11-23T06:37:00;2.30;99.90
770;DHT22;368;48.698;9.116;2022-11-23T06:39:26;2.40;99.90
770;DHT22;368;48.698;9.116;2022-11-23T06:41:54;2.50;99.90
770;DHT22;368;48.698;9.116;2022-11-23T06:44:21;2.50;99.90
770;DHT22;368;48.698;9.116;2022-11-23T06:46:49;2.50;99.90
770;DHT22;368;48.698;9.116;2022-11-23T06:49:16;2.20;99.90
770;DHT22;368;48.698;9.116;2022-11-23T06:51:44;2.40;99.90
770;DHT22;368;48.698;9.116;2022-11-23T06:54:11;2.20;99.90
770;DHT22;368;48.698;9.116;2022-11-23T06:56:38;2.40;99.90
770;DHT22;368;48.698;9.116;2022-11-23T06:59:07;2.20;99.90
770;DHT22;368;48.698;9.116;2022-11-23T07:01:33;2.50;99.90
770;DHT22;368;48.698;9.116;2022-11-23T07:04:00;2.60;99.90
770;DHT22;368;48.698;9.116;2022-11-23T07:06:27;2.50;99.90
770;DHT22;368;48.698;9.116;2022-11-23T07:08:54;2.60;99.90
770;DHT22;368;48.698;9.116;2022-11-23T07:11:21;2.70;99.90
770;DHT22;368;48.698;9.116;2022-11-23T07:13:48;2.70;99.90
770;DHT22;368;48.698;9.116;2022-11-23T07:16:16;2.70;99.90
770;DHT22;368;48.698;9.116;2022-11-23T07:18:43;2.80;99.90
770;DHT22;368;48.698;9.116;2022-11-23T07:21:10;2.90;99.90
770;DHT22;368;48.698;9.116;2022-11-23T07:23:37;2.60;99.90
770;DHT22;368;48.698;9.116;2022-11-23T07:26:06;2.80;99.90
770;DHT22;368;48.698;9.116;2022-11-23T07:28:33;2.90;99.90
770;DHT22;368;48.698;9.116;2022-11-23T07:31:00;2.80;99.90
770;DHT22;368;48.698;9.116;2022-11-23T07:33:28;2.80;99.90
770;DHT22;368;48.698;9.116;2022-11-23T07:35:55;2.40;99.90
770;DHT22;368;48.698;9.116;2022-11-23T07:38:22;2.80;99.90
770;DHT22;368;48.698;9.116;2022-11-23T07:40:49;2.60;99.90
770;DHT22;368;48.698;9.116;2022-11-23T07:43:16;2.70;99.90
770;DHT22;368;48.698;9.116;2022-11-23T07:45:43;2.70;99.90
770;DHT22;368;48.698;9.116;2022-11-23T07:48:11;2.50;99.90
770;DHT22;368;48.698;9.116;2022-11-23T07:50:39;2.60;99.90
770;DHT22;368;48.698;9.116;2022-11-23T07:53:06;2.60;99.90
770;DHT22;368;48.698;9.116;2022-11-23T07:55:33;2.60;99.90
770;DHT22;368;48.698;9.116;2022-11-23T07:58:00;2.80;99.90
770;DHT22;368;48.698;9.116;2022-11-23T08:00:28;2.70;99.90
770;DHT22;368;48.698;9.116;2022-11-23T08:02:56;2.80;99.90
770;DHT22;368;48.698;9.116;2022-11-23T08:05:23;2.70;99.90
770;DHT22;368;48.698;9.116;2022-11-23T08:07:58;2.90;99.90
770;DHT22;368;48.698;9.116;2022-11-23T08:10:26;3.00;99.90
770;DHT22;368;48.698;9.116;2022-11-23T08:12:56;3.10;99.90
770;DHT22;368;48.698;9.116;2022-11-23T08:15:22;3.00;99.90
770;DHT22;368;48.698;9.116;2022-11-23T08:17:53;3.10;99.90
770;DHT22;368;48.698;9.116;2022-11-23T08:20:20;3.50;99.90
770;DHT22;368;48.698;9.116;2022-11-23T08:22:47;3.30;99.90
770;DHT22;368;48.698;9.116;2022-11-23T08:25:16;3.60;99.90
770;DHT22;368;48.698;9.116;2022-11-23T08:27:42;3.30;99.90
770;DHT22;368;48.698;9.116;2022-11-23T08:30:10;3.40;99.90
770;DHT22;368;48.698;9.116;2022-11-23T08:32:36;3.40;99.90
770;DHT22;368;48.698;9.116;2022-11-23T08:35:04;3.80;99.90
770;DHT22;368;48.698;9.116;2022-11-23T08:37:31;3.90;99.90
770;DHT22;368;48.698;9.116;2022-11-23T08:39:58;3.60;99.90
770;DHT22;368;48.698;9.116;2022-11-23T08:42:26;4.10;99.90
770;DHT22;368;48.698;9.116;2022-11-23T08:44:52;4.20;99.90
770;DHT22;368;48.698;9.116;2022-11-23T08:47:19;4.10;99.90
770;DHT22;368;48.698;9.116;2022-11-23T08:49:46;4.30;99.90
770;DHT22;368;48.698;9.116;2022-11-23T08:52:13;4.60;99.90
770;DHT22;368;48.698;9.116;2022-11-23T08:54:40;4.40;99.90
770;DHT22;368;48.698;9.116;2022-11-23T08:57:07;4.60;99.90
770;DHT22;368;48.698;9.116;2022-11-23T08:59:35;4.60;99.90
770;DHT22;368;48.698;9.116;2022-11-23T09:02:02;4.60;99.90
770;DHT22;368;48.698;9.116;2022-11-23T09:04:28;4.80;99.90
770;DHT22;368;48.698;9.116;2022-11-23T09:06:55;4.80;99.90
770;DHT22;368;48.698;9.116;2022-11-23T09:09:22;4.90;99.90
770;DHT22;368;48.698;9.116;2022-11-23T09:11:49;4.90;99.90
770;DHT22;368;48.698;9.116;2022-11-23T09:14:16;5.30;99.90
770;DHT22;368;48.698;9.116;2022-11-23T09:16:44;5.20;99.90
770;DHT22;368;48.698;9.116;2022-11-23T09:19:12;5.20;99.90
770;DHT22;368;48.698;9.116;2022-11-23T09:21:39;5.20;99.90
770;DHT22;368;48.698;9.116;2022-11-23T09:24:08;5.10;99.90
770;DHT22;368;48.698;9.116;2022-11-23T09:26:35;5.20;99.90
770;DHT22;368;48.698;9.116;2022-11-23T09:29:02;5.40;99.90
770;DHT22;368;48.698;9.116;2022-11-23T09:31:29;5.30;99.90
770;DHT22;368;48.698;9.116;2022-11-23T09:33:57;5.70;99.90
770;DHT22;368;48.698;9.116;2022-11-23T09:36:24;5.50;99.90
770;DHT22;368;48.698;9.116;2022-11-23T09:38:51;5.80;99.90
770;DHT22;368;48.698;9.116;2022-11-23T09:41:41;5.50;99.90
770;DHT22;368;48.698;9.116;2022-11-23T09:44:13;5.50;99.90
770;DHT22;368;48.698;9.116;2022-11-23T09:46:57;5.50;99.90
770;DHT22;368;48.698;9.116;2022-11-23T09:49:37;5.60;99.90
770;DHT22;368;48.698;9.116;2022-11-23T09:52:13;5.90;99.90
770;DHT22;368;48.698;9.116;2022-11-23T09:54:43;6.00;99.90
770;DHT22;368;48.698;9.116;2022-11-23T09:57:11;6.00;99.90
770;DHT22;368;48.698;9.116;2022-11-23T09:59:41;6.10;99.90
770;DHT22;368;48.698;9.116;2022-11-23T10:02:17;6.00;99.90
770;DHT22;368;48.698;9.116;2022-11-23T10:04:46;6.50;99.90
770;DHT22;368;48.698;9.116;2022-11-23T10:07:24;6.30;99.90
770;DHT22;368;48.698;9.116;2022-11-23T10:10:03;6.50;99.90
770;DHT22;368;48.698;9.116;2022-11-23T10:12:42;6.40;99.90
770;DHT22;368;48.698;9.116;2022-11-23T10:15:12;6.30;99.90
770;DHT22;368;48.698;9.116;2022-11-23T10:20:47;6.70;99.90
770;DHT22;368;48.698;9.116;2022-11-23T10:23:24;6.70;99.90
770;DHT22;368;48.698;9.116;2022-11-23T10:25:53;6.80;99.90
770;DHT22;368;48.698;9.116;2022-11-23T10:28:21;6.70;99.90
770;DHT22;368;48.698;9.116;2022-11-23T10:30:52;6.70;99.90
770;DHT22;368;48.698;9.116;2022-11-23T10:33:25;6.90;99.90
770;DHT22;368;48.698;9.116;2022-11-23T10:35:55;7.00;99.90
770;DHT22;368;48.698;9.116;2022-11-23T10:38:25;6.80;99.90
770;DHT22;368;48.698;9.116;2022-11-23T10:41:01;7.00;99.90
770;DHT22;368;48.698;9.116;2022-11-23T10:43:32;7.00;99.90
770;DHT22;368;48.698;9.116;2022-11-23T10:46:29;7.20;99.90
770;DHT22;368;48.698;9.116;2022-11-23T10:49:09;7.20;99.90
770;DHT22;368;48.698;9.116;2022-11-23T10:51:48;7.10;99.90
770;DHT22;368;48.698;9.116;2022-11-23T10:54:21;7.00;99.90
770;DHT22;368;48.698;9.116;2022-11-23T10:56:50;7.20;99.90
770;DHT22;368;48.698;9.116;2022-11-23T10:59:28;7.50;99.90
770;DHT22;368;48.698;9.116;2022-11-23T11:02:01;7.40;99.90
770;DHT22;368;48.698;9.116;2022-11-23T11:04:28;7.80;99.90
770;DHT22;368;48.698;9.116;2022-11-23T11:07:17;7.50;99.90
770;DHT22;368;48.698;9.116;2022-11-23T11:09:48;7.90;99.90
770;DHT22;368;48.698;9.116;2022-11-23T11:12:16;7.90;99.90
770;DHT22;368;48.698;9.116;2022-11-23T11:14:54;8.00;99.90
770;DHT22;368;48.698;9.116;2022-11-23T11:17:26;8.60;99.90
770;DHT22;368;48.698;9.116;2022-11-23T11:19:53;8.70;99.90
770;DHT22;368;48.698;9.116;2022-11-23T11:22:39;9.80;99.90
770;DHT22;368;48.698;9.116;2022-11-23T11:25:17;12.30;95.00
770;DHT22;368;48.698;9.116;2022-11-23T11:27:51;14.00;91.40
770;DHT22;368;48.698;9.116;2022-11-23T11:30:22;14.90;86.00
770;DHT22;368;48.698;9.116;2022-11-23T11:32:53;14.40;85.50
770;DHT22;368;48.698;9.116;2022-11-23T11:35:25;15.60;86.10
770;DHT22;368;48.698;9.116;2022-11-23T11:37:56;18.10;79.90
770;DHT22;368;48.698;9.116;2022-11-23T11:40:29;17.20;75.40
770;DHT22;368;48.698;9.116;2022-11-23T11:43:02;18.60;72.40
770;DHT22;368;48.698;9.116;2022-11-23T11:45:32;18.50;69.80
770;DHT22;368;48.698;9.116;2022-11-23T11:48:06;18.00;66.30
770;DHT22;368;48.698;9.116;2022-11-23T11:50:38;18.30;67.00
770;DHT22;368;48.698;9.116;2022-11-23T11:53:12;18.70;69.70
770;DHT22;368;48.698;9.116;2022-11-23T11:55:49;18.80;69.50
770;DHT22;368;48.698;9.116;2022-11-23T11:58:18;19.60;65.80
770;DHT22;368;48.698;9.116;2022-11-23T12:00:48;19.40;63.40
770;DHT22;368;48.698;9.116;2022-11-23T12:03:22;19.70;64.10
770;DHT22;368;48.698;9.116;2022-11-23T12:05:54;20.00;61.90
770;DHT22;368;48.698;9.116;2022-11-23T12:08:34;20.20;59.90
770;DHT22;368;48.698;9.116;2022-11-23T12:11:04;20.10;63.00
770;DHT22;368;48.698;9.116;2022-11-23T12:13:33;19.70;59.80
770;DHT22;368;48.698;9.116;2022-11-23T12:16:06;20.00;59.50
770;DHT22;368;48.698;9.116;2022-11-23T12:18:45;19.20;63.70
770;DHT22;368;48.698;9.116;2022-11-23T12:21:38;19.50;63.00
770;DHT22;368;48.698;9.116;2022-11-23T12:24:15;19.40;60.40
770;DHT22;368;48.698;9.116;2022-11-23T12:26:51;19.60;60.60
770;DHT22;368;48.698;9.116;2022-11-23T12:29:35;19.30;60.30
770;DHT22;368;48.698;9.116;2022-11-23T12:32:11;19.10;61.60
770;DHT22;368;48.698;9.116;2022-11-23T12:34:56;19.10;61.10
770;DHT22;368;48.698;9.116;2022-11-23T12:37:37;19.60;61.10
770;DHT22;368;48.698;9.116;2022-11-23T12:40:21;20.10;58.80
770;DHT22;368;48.698;9.116;2022-11-23T12:42:57;20.70;58.00
770;DHT22;368;48.698;9.116;2022-11-23T12:45:38;20.10;57.80
770;DHT22;368;48.698;9.116;2022-11-23T12:48:19;20.00;58.60
770;DHT22;368;48.698;9.116;2022-11-23T12:50:54;18.60;59.10
770;DHT22;368;48.698;9.116;2022-11-23T12:53:34;18.30;60.50
770;DHT22;368;48.698;9.116;2022-11-23T12:56:11;18.60;58.60
770;DHT22;368;48.698;9.116;2022-11-23T12:58:40;17.60;59.80
770;DHT22;368;48.698;9.116;2022-11-23T13:01:13;18.50;59.40
770;DHT22;368;48.698;9.116;2022-11-23T13:03:55;17.80;62.20
770;DHT22;368;48.698;9.116;2022-11-23T13:13:20;17.30;62.00
770;DHT22;368;48.698;9.116;2022-11-23T13:18:55;19.20;59.40
770;DHT22;368;48.698;9.116;2022-11-23T13:21:29;18.80;60.40
770;DHT22;368;48.698;9.116;2022-11-23T13:23:56;18.00;60.60
770;DHT22;368;48.698;9.116;2022-11-23T13:26:24;19.30;59.10
770;DHT22;368;48.698;9.116;2022-11-23T13:28:55;18.30;59.30
770;DHT22;368;48.698;9.116;2022-11-23T13:31:27;19.20;59.80
770;DHT22;368;48.698;9.116;2022-11-23T13:33:57;18.50;60.40
770;DHT22;368;48.698;9.116;2022-11-23T13:36:39;18.60;59.00
770;DHT22;368;48.698;9.116;2022-11-23T13:42:13;18.20;59.90
770;DHT22;368;48.698;9.116;2022-11-23T13:44:42;18.10;61.10
770;DHT22;368;48.698;9.116;2022-11-23T13:47:19;17.70;61.20
770;DHT22;368;48.698;9.116;2022-11-23T13:49:48;18.10;62.80
770;DHT22;368;48.698;9.116;2022-11-23T13:52:26;18.30;61.50
770;DHT22;368;48.698;9.116;2022-11-23T13:54:59;17.50;61.60
770;DHT22;368;48.698;9.116;2022-11-23T13:57:26;17.20;63.20
770;DHT22;368;48.698;9.116;2022-11-23T14:06:09;16.90;64.80
770;DHT22;368;48.698;9.116;2022-11-23T14:08:38;17.60;63.90
770;DHT22;368;48.698;9.116;2022-11-23T14:11:10;17.30;63.50
770;DHT22;368;48.698;9.116;2022-11-23T14:13:39;17.40;62.90
770;DHT22;368;48.698;9.116;2022-11-23T14:16:15;16.70;63.80
770;DHT22;368;48.698;9.116;2022-11-23T14:18:55;15.20;66.80
770;DHT22;368;48.698;9.116;2022-11-23T14:21:33;14.60;69.40
770;DHT22;368;48.698;9.116;2022-11-23T14:24:24;14.40;71.00
770;DHT22;368;48.698;9.116;2022-11-23T14:27:03;15.40;69.40
770;DHT22;368;48.698;9.116;2022-11-23T14:29:52;16.10;68.30
770;DHT22;368;48.698;9.116;2022-11-23T14:32:31;16.10;67.20
770;DHT22;368;48.698;9.116;2022-11-23T14:35:14;15.90;67.10
770;DHT22;368;48.698;9.116;2022-11-23T14:37:59;15.20;68.80
770;DHT22;368;48.698;9.116;2022-11-23T14:40:36;15.30;69.00
770;DHT22;368;48.698;9.116;2022-11-23T14:43:12;15.40;68.80
770;DHT22;368;48.698;9.116;2022-11-23T14:45:42;15.20;68.10
770;DHT22;368;48.698;9.116;2022-11-23T14:48:26;14.60;70.20
770;DHT22;368;48.698;9.116;2022-11-23T14:50:55;13.80;72.40
770;DHT22;368;48.698;9.116;2022-11-23T14:53:26;13.10;73.30
770;DHT22;368;48.698;9.116;2022-11-23T14:55:54;12.20;73.90
770;DHT22;368;48.698;9.116;2022-11-23T14:58:22;10.90;77.20
770;DHT22;368;48.698;9.116;2022-11-23T15:00:51;10.10;80.50
770;DHT22;368;48.698;9.116;2022-11-23T15:03:26;9.60;84.80
770;DHT22;368;48.698;9.116;2022-11-23T15:05:57;9.30;86.10
770;DHT22;368;48.698;9.116;2022-11-23T15:08:28;9.10;89.10
770;DHT22;368;48.698;9.116;2022-11-23T15:10:59;8.60;91.00
770;DHT22;368;48.698;9.116;2022-11-23T15:13:30;8.30;91.60
770;DHT22;368;48.698;9.116;2022-11-23T15:15:58;8.00;92.90
770;DHT22;368;48.698;9.116;2022-11-23T15:18:31;8.00;93.70
770;DHT22;368;48.698;9.116;2022-11-23T15:21:01;8.20;93.40
770;DHT22;368;48.698;9.116;2022-11-23T15:23:33;8.00;93.90
770;DHT22;368;48.698;9.116;2022-11-23T15:26:04;7.80;94.80
770;DHT22;368;48.698;9.116;2022-11-23T15:28:34;7.30;95.70
770;DHT22;368;48.698;9.116;2022-11-23T15:31:23;7.20;96.70
770;DHT22;368;48.698;9.116;2022-11-23T15:33:55;7.00;97.30
770;DHT22;368;48.698;9.116;2022-11-23T15:36:25;7.10;98.20
770;DHT22;368;48.698;9.116;2022-11-23T15:38:53;6.70;98.70
770;DHT22;368;48.698;9.116;2022-11-23T15:41:21;6.60;99.60
770;DHT22;368;48.698;9.116;2022-11-23T15:43:52;6.50;99.90
770;DHT22;368;48.698;9.116;2022-11-23T15:46:20;6.50;99.90
770;DHT22;368;48.698;9.116;2022-11-23T15:48:50;6.70;99.90
770;DHT22;368;48.698;9.116;2022-11-23T15:51:24;6.50;99.90
770;DHT22;368;48.698;9.116;2022-11-23T15:53:52;6.40;99.90
770;DHT22;368;48.698;9.116;2022-11-23T15:56:22;6.60;99.90
770;DHT22;368;48.698;9.116;2022-11-23T15:58:51;6.40;99.90
770;DHT22;368;48.698;9.116;2022-11-23T16:01:18;6.40;99.90
770;DHT22;368;48.698;9.116;2022-11-23T16:03:50;6.50;99.90
770;DHT22;368;48.698;9.116;2022-11-23T16:06:27;6.80;99.90
770;DHT22;368;48.698;9.116;2022-11-23T16:08:59;7.20;99.90
770;DHT22;368;48.698;9.116;2022-11-23T16:11:31;7.00;99.90
770;DHT22;368;48.698;9.116;2022-11-23T16:14:12;7.00;99.90
770;DHT22;368;48.698;9.116;2022-11-23T16:16:39;7.20;99.90
770;DHT22;368;48.698;9.116;2022-11-23T16:19:23;7.00;99.90
770;DHT22;368;48.698;9.116;2022-11-23T16:21:54;7.00;99.90
770;DHT22;368;48.698;9.116;2022-11-23T16:24:23;7.30;99.90
770;DHT22;368;48.698;9.116;2022-11-23T16:26:51;7.30;99.90
770;DHT22;368;48.698;9.116;2022-11-23T16:29:21;7.30;99.90
770;DHT22;368;48.698;9.116;2022-11-23T16:31:56;7.40;99.90
770;DHT22;368;48.698;9.116;2022-11-23T16:34:24;7.70;99.90
770;DHT22;368;48.698;9.116;2022-11-23T16:36:54;7.40;99.90
770;DHT22;368;48.698;9.116;2022-11-23T16:39:24;7.30;99.80
770;DHT22;368;48.698;9.116;2022-11-23T16:41:52;7.20;99.90
770;DHT22;368;48.698;9.116;2022-11-23T16:44:19;7.60;99.90
770;DHT22;368;48.698;9.116;2022-11-23T16:46:46;7.60;99.90
770;DHT22;368;48.698;9.116;2022-11-23T16:49:15;7.40;99.90
770;DHT22;368;48.698;9.116;2022-11-23T16:51:44;7.30;99.90
770;DHT22;368;48.698;9.116;2022-11-23T16:54:15;7.40;99.90
770;DHT22;368;48.698;9.116;2022-11-23T16:56:42;7.20;99.90
770;DHT22;368;48.698;9.116;2022-11-23T16:59:16;7.10;99.90
770;DHT22;368;48.698;9.116;2022-11-23T17:01:48;7.40;99.90
770;DHT22;368;48.698;9.116;2022-11-23T17:04:16;7.40;99.90
770;DHT22;368;48.698;9.116;2022-11-23T17:06:43;7.30;99.90
770;DHT22;368;48.698;9.116;2022-11-23T17:09:09;7.20;99.90
770;DHT22;368;48.698;9.116;2022-11-23T17:11:40;7.20;99.90
770;DHT22;368;48.698;9.116;2022-11-23T17:14:10;7.10;99.90
770;DHT22;368;48.698;9.116;2022-11-23T17:16:38;7.20;99.90
770;DHT22;368;48.698;9.116;2022-11-23T17:19:08;7.00;99.90
770;DHT22;368;48.698;9.116;2022-11-23T17:21:38;7.20;99.90
770;DHT22;368;48.698;9.116;2022-11-23T17:24:05;6.80;99.90
770;DHT22;368;48.698;9.116;2022-11-23T17:26:34;6.80;99.90
770;DHT22;368;48.698;9.116;2022-11-23T17:29:06;6.90;99.90